Time;durP1;ratioP1;P1;durP2;ratioP2;P2;SDS_P1;SDS_P2;PMS_P1;PMS_P2;Temp;Humidity;BMP_temperature;BMP_pressure;BME280_temperature;BME280_humidity;BME280_pressure;Samples;Min_cycle;Max_cycle;Signal;HPM_P1;HPM_P2
2021/11/24 00:02:13;;;;;;;9.85;8.95;;;;;;;5.83;78.38;99777.32;1761583;81;21039;-66
2021/11/24 00:04:40;;;;;;;10.10;9.10;;;;;;;5.84;78.48;99780.30;1747490;81;21152;-66
2021/11/24 00:07:07;;;;;;;12.73;11.43;;;;;;;5.86;78.40;99783.69;1750446;81;21410;-65
2021/11/24 00:09:35;;;;;;;10.93;9.60;;;;;;;5.87;78.45;99783.19;1757751;80;20967;-65
2021/11/24 00:12:03;;;;;;;9.80;8.83;;;;;;;5.80;78.59;99790.78;1754040;80;21106;-67
2021/11/24 00:14:31;;;;;;;10.18;9.28;;;;;;;5.79;78.66;99786.45;1748043;80;21003;-67
2021/11/24 00:16:57;;;;;;;10.05;8.95;;;;;;;5.80;78.92;99785.50;1762240;80;21063;-66
2021/11/24 00:19:24;;;;;;;11.20;10.00;;;;;;;5.85;78.94;99797.84;1755677;80;20982;-66
2021/11/24 00:21:50;;;;;;;10.23;9.23;;;;;;;5.88;79.05;99794.11;1753302;80;21001;-67
2021/11/24 00:24:17;;;;;;;10.40;8.18;;;;;;;5.97;78.80;99789.36;1760789;80;21821;-66
2021/11/24 00:26:44;;;;;;;10.35;9.30;;;;;;;5.98;78.84;99791.86;1753454;80;20958;-66
2021/11/24 00:29:13;;;;;;;10.68;9.63;;;;;;;6.05;78.75;99794.30;1762610;80;20980;-67
2021/11/24 00:31:41;;;;;;;9.65;8.65;;;;;;;6.09;78.66;99790.44;1768180;80;20991;-67
2021/11/24 00:34:08;;;;;;;10.38;8.73;;;;;;;6.09;78.69;99791.77;1760483;80;20855;-66
2021/11/24 00:36:35;;;;;;;9.75;8.83;;;;;;;6.15;78.67;99795.16;1762724;80;20986;-65
2021/11/24 00:39:02;;;;;;;10.25;9.25;;;;;;;6.16;78.67;99790.25;1767015;80;21021;-67
2021/11/24 00:41:29;;;;;;;10.80;9.70;;;;;;;6.22;78.46;99786.23;1768927;80;21132;-67
2021/11/24 00:43:55;;;;;;;10.08;9.05;;;;;;;6.27;78.29;99787.98;1759919;80;20948;-68
2021/11/24 00:46:22;;;;;;;10.35;9.38;;;;;;;6.23;77.96;99787.41;1762894;80;20986;-68
2021/11/24 00:48:49;;;;;;;10.75;9.68;;;;;;;6.21;77.95;99795.95;1750696;80;21112;-66
2021/11/24 00:51:15;;;;;;;13.45;9.98;;;;;;;6.18;78.00;99793.58;1752422;80;20883;-66
2021/11/24 00:53:41;;;;;;;10.43;9.43;;;;;;;6.21;78.01;99794.64;1763837;80;21087;-66
2021/11/24 00:56:08;;;;;;;12.23;10.72;;;;;;;6.18;77.92;99797.55;1757172;80;20967;-66
2021/11/24 00:58:35;;;;;;;11.38;10.38;;;;;;;6.23;77.91;99801.61;1764038;80;21473;-66
2021/11/24 01:01:01;;;;;;;10.80;9.70;;;;;;;6.23;77.92;99796.66;1761655;80;20943;-66
2021/11/24 01:03:28;;;;;;;13.00;10.00;;;;;;;6.30;77.79;99793.48;1765431;80;20876;-66
2021/11/24 01:05:54;;;;;;;12.18;10.28;;;;;;;6.33;77.68;99790.57;1766449;80;21125;-66
2021/11/24 01:08:22;;;;;;;11.20;10.20;;;;;;;6.32;77.78;99788.89;1751675;80;21473;-66
2021/11/24 01:10:48;;;;;;;10.98;9.88;;;;;;;6.31;77.86;99793.33;1758643;80;21602;-67
2021/11/24 01:13:16;;;;;;;12.35;11.05;;;;;;;6.19;78.21;99791.78;1758447;80;20936;-67
2021/11/24 01:15:45;;;;;;;12.00;10.28;;;;;;;6.12;78.31;99797.27;1753468;80;21477;-67
2021/11/24 01:18:12;;;;;;;11.25;10.18;;;;;;;6.07;78.52;99784.95;1754522;80;21162;-67
2021/11/24 01:20:39;;;;;;;11.75;10.65;;;;;;;6.12;78.38;99786.22;1714629;82;20992;-65
2021/11/24 01:23:06;;;;;;;11.88;10.80;;;;;;;6.14;78.18;99790.88;1757415;80;20990;-66
2021/11/24 01:25:32;;;;;;;12.03;10.72;;;;;;;6.15;78.16;99789.88;1759331;80;21053;-65
2021/11/24 01:27:59;;;;;;;12.07;10.78;;;;;;;6.13;78.17;99798.91;1765178;80;21017;-66
2021/11/24 01:30:26;;;;;;;12.35;11.15;;;;;;;6.17;78.12;99803.81;1755977;80;21147;-67
2021/11/24 01:32:52;;;;;;;12.82;11.53;;;;;;;6.21;77.86;99797.28;1748297;80;20888;-66
2021/11/24 01:35:19;;;;;;;14.58;12.18;;;;;;;6.13;77.99;99797.11;1764439;80;21053;-67
2021/11/24 01:37:45;;;;;;;13.60;12.20;;;;;;;6.07;78.47;99795.03;1772105;80;21386;-67
2021/11/24 01:40:12;;;;;;;12.68;11.57;;;;;;;6.08;78.44;99797.16;1762241;80;20923;-69
2021/11/24 01:42:39;;;;;;;13.80;12.50;;;;;;;6.09;78.32;99797.53;1760844;80;21142;-68
2021/11/24 01:45:09;;;;;;;12.90;11.70;;;;;;;6.08;78.41;99798.00;1758341;80;20943;-67
2021/11/24 01:47:35;;;;;;;13.68;12.47;;;;;;;6.08;78.60;99795.84;1750088;80;21056;-67
2021/11/24 01:50:04;;;;;;;13.00;11.70;;;;;;;6.01;78.81;99798.67;1766605;80;21003;-67
2021/11/24 01:52:32;;;;;;;13.10;11.90;;;;;;;5.98;79.03;99801.09;1760231;80;21488;-68
2021/11/24 01:55:00;;;;;;;11.93;10.90;;;;;;;6.02;79.02;99805.13;1749342;80;21556;-65
2021/11/24 01:57:31;;;;;;;13.98;12.58;;;;;;;6.00;78.98;99800.95;1763603;80;21441;-67
2021/11/24 01:59:56;;;;;;;15.13;13.53;;;;;;;5.95;79.13;99804.48;1768451;80;20871;-68
2021/11/24 02:02:24;;;;;;;15.25;13.78;;;;;;;5.96;79.27;99804.37;1765282;80;20951;-67
2021/11/24 02:04:50;;;;;;;14.53;13.18;;;;;;;5.98;79.19;99802.90;1754832;80;20990;-69
2021/11/24 02:07:17;;;;;;;17.02;14.78;;;;;;;5.90;79.41;99803.56;1757585;80;21217;-67
2021/11/24 02:09:46;;;;;;;16.80;14.13;;;;;;;5.99;79.24;99800.14;1759611;81;20908;-67
2021/11/24 02:12:14;;;;;;;17.57;15.78;;;;;;;6.03;79.15;99799.38;1764716;81;21468;-68
2021/11/24 02:14:42;;;;;;;17.10;15.40;;;;;;;6.04;78.97;99795.30;1748418;81;20959;-67
2021/11/24 02:17:10;;;;;;;16.27;14.78;;;;;;;6.02;79.21;99793.76;1751886;81;21555;-67
2021/11/24 02:19:36;;;;;;;17.87;15.95;;;;;;;6.04;79.02;99796.61;1690637;83;21908;-68
2021/11/24 02:22:03;;;;;;;20.15;18.05;;;;;;;6.06;78.92;99798.63;1747932;81;20920;-68
2021/11/24 02:24:34;;;;;;;21.62;17.90;;;;;;;6.06;78.89;99797.31;1760621;81;20927;-68
2021/11/24 02:27:03;;;;;;;24.43;18.98;;;;;;;6.16;78.80;99796.01;1754553;81;21046;-67
2021/11/24 02:29:32;;;;;;;23.70;18.80;;;;;;;6.25;78.43;99791.73;1750607;81;21061;-66
2021/11/24 02:32:01;;;;;;;27.73;19.30;;;;;;;6.20;78.50;99802.71;1751540;81;20943;-67
2021/11/24 02:34:29;;;;;;;25.15;18.40;;;;;;;6.19;78.51;99808.47;1691266;84;21023;-65
2021/11/24 02:36:57;;;;;;;22.00;18.05;;;;;;;6.18;78.54;99808.11;1683142;84;20924;-67
2021/11/24 02:39:23;;;;;;;19.80;16.97;;;;;;;6.17;78.55;99801.17;1691269;84;21046;-66
2021/11/24 02:41:50;;;;;;;16.73;15.03;;;;;;;6.15;78.72;99798.32;1687273;84;21007;-65
2021/11/24 02:44:26;;;;;;;16.52;14.90;;;;;;;6.13;78.74;99802.87;1690118;84;21349;-67
2021/11/24 02:46:55;;;;;;;16.40;14.68;;;;;;;6.13;78.63;99806.36;1747972;81;20939;-67
2021/11/24 02:49:21;;;;;;;16.65;14.63;;;;;;;6.16;78.61;99802.13;1752263;81;20979;-66
2021/11/24 02:51:51;;;;;;;16.95;15.32;;;;;;;6.19;78.43;99805.83;1748069;81;20919;-65
2021/11/24 02:54:18;;;;;;;19.32;16.07;;;;;;;6.19;78.35;99797.91;1747435;81;21017;-67
2021/11/24 02:56:47;;;;;;;18.15;15.98;;;;;;;6.26;78.26;99798.70;1749910;81;21125;-66
2021/11/24 02:59:18;;;;;;;17.12;15.30;;;;;;;6.29;77.85;99797.08;1746269;81;21565;-66
2021/11/24 03:01:44;;;;;;;18.48;15.78;;;;;;;6.30;77.91;99789.03;1743133;81;21125;-66
2021/11/24 03:04:11;;;;;;;20.90;16.20;;;;;;;6.31;77.47;99788.55;1747061;81;20948;-66
2021/11/24 03:06:39;;;;;;;19.77;16.40;;;;;;;6.16;77.69;99791.56;1749750;81;21098;-66
2021/11/24 03:09:07;;;;;;;21.95;17.57;;;;;;;6.18;77.47;99792.27;1748028;80;20979;-66
2021/11/24 03:11:34;;;;;;;18.70;15.98;;;;;;;5.99;78.19;99794.86;1742785;81;20890;-66
2021/11/24 03:14:01;;;;;;;17.52;15.05;;;;;;;6.06;78.15;99793.34;1748324;81;20994;-65
2021/11/24 03:16:28;;;;;;;17.05;15.25;;;;;;;6.03;78.29;99794.93;1744065;81;21089;-67
2021/11/24 03:18:55;;;;;;;17.80;15.98;;;;;;;6.01;78.36;99800.84;1746594;81;21458;-66
2021/11/24 03:21:21;;;;;;;18.30;16.50;;;;;;;6.03;78.70;99801.53;1753438;81;21149;-66
2021/11/24 03:23:48;;;;;;;19.27;17.27;;;;;;;6.12;78.41;99804.70;1762409;81;21010;-67
2021/11/24 03:26:15;;;;;;;19.05;17.05;;;;;;;6.10;78.22;99806.62;1756555;81;20960;-66
2021/11/24 03:28:42;;;;;;;20.65;18.45;;;;;;;5.99;78.42;99808.55;1742696;81;20994;-67
2021/11/24 03:31:09;;;;;;;24.47;17.57;;;;;;;6.06;78.37;99812.31;1743289;81;21037;-66
2021/11/24 03:33:37;;;;;;;19.20;17.27;;;;;;;5.98;78.45;99809.02;1745943;81;21719;-66
2021/11/24 03:36:04;;;;;;;18.87;16.42;;;;;;;5.98;78.73;99808.19;1743851;81;22443;-67
2021/11/24 03:38:31;;;;;;;20.43;16.97;;;;;;;6.04;78.62;99806.34;1753701;81;20935;-67
2021/11/24 03:40:58;;;;;;;19.65;17.65;;;;;;;6.04;78.71;99813.78;1751933;81;21462;-67
2021/11/24 03:43:24;;;;;;;19.23;17.23;;;;;;;5.98;78.81;99809.02;1751386;81;20895;-66
2021/11/24 03:45:51;;;;;;;17.67;15.85;;;;;;;5.94;79.01;99806.79;1751972;81;21164;-66
2021/11/24 03:48:18;;;;;;;21.40;18.05;;;;;;;5.94;78.72;99807.63;1757534;81;21006;-67
2021/11/24 03:50:45;;;;;;;19.60;17.60;;;;;;;5.90;78.83;99807.53;1746750;81;20923;-67
2021/11/24 03:53:12;;;;;;;19.85;17.70;;;;;;;5.91;78.91;99813.17;1746574;81;20912;-65
2021/11/24 03:55:39;;;;;;;23.22;18.27;;;;;;;5.92;78.91;99814.83;1764746;81;21600;-66
2021/11/24 03:58:05;;;;;;;20.30;18.20;;;;;;;5.96;78.92;99811.45;1762380;81;21570;-66
2021/11/24 04:00:33;;;;;;;20.10;18.15;;;;;;;5.91;78.96;99812.33;1755309;81;21466;-67
2021/11/24 04:03:00;;;;;;;25.15;19.77;;;;;;;5.87;79.01;99817.51;1754132;81;20944;-67
2021/11/24 04:05:27;;;;;;;22.20;19.30;;;;;;;5.91;79.11;99813.66;1766549;81;20943;-65
2021/11/24 04:07:53;;;;;;;22.05;18.48;;;;;;;5.92;79.11;99816.63;1746901;81;20943;-67
2021/11/24 04:10:20;;;;;;;21.93;18.80;;;;;;;5.88;79.08;99821.36;1757792;81;21089;-67
2021/11/24 04:12:46;;;;;;;21.48;19.15;;;;;;;5.83;79.22;99822.20;1748754;81;21439;-66
2021/11/24 04:15:16;;;;;;;20.70;18.50;;;;;;;5.81;79.47;99822.83;1761997;80;21390;-67
2021/11/24 04:17:43;;;;;;;21.70;19.40;;;;;;;5.83;79.53;99821.36;1754766;81;20982;-65
2021/11/24 04:20:12;;;;;;;22.87;18.98;;;;;;;5.88;79.45;99824.00;1757734;81;21015;-65
2021/11/24 04:22:39;;;;;;;25.00;20.77;;;;;;;5.82;79.64;99819.20;1745796;81;21828;-65
2021/11/24 04:25:07;;;;;;;23.35;20.25;;;;;;;5.91;79.52;99822.42;1754020;81;21682;-67
2021/11/24 04:27:34;;;;;;;26.93;20.70;;;;;;;5.95;79.29;99822.48;1751895;81;21434;-66
2021/11/24 04:30:00;;;;;;;24.23;21.05;;;;;;;6.05;79.11;99822.52;1765736;81;20888;-67
2021/11/24 04:32:27;;;;;;;25.05;20.25;;;;;;;6.11;78.76;99816.70;1759060;81;20990;-66
2021/11/24 04:34:53;;;;;;;23.95;20.30;;;;;;;6.08;78.51;99815.17;1746107;81;21151;-67
2021/11/24 04:37:20;;;;;;;26.27;20.85;;;;;;;6.12;78.42;99817.07;1762915;81;20987;-67
2021/11/24 04:39:46;;;;;;;22.22;19.87;;;;;;;6.10;78.53;99817.19;1764231;81;21309;-68
2021/11/24 04:42:13;;;;;;;22.10;19.82;;;;;;;6.18;78.23;99816.03;1756916;81;20980;-66
2021/11/24 04:44:40;;;;;;;23.10;20.15;;;;;;;6.15;78.35;99814.17;1751648;81;21058;-67
2021/11/24 04:47:07;;;;;;;22.45;20.12;;;;;;;6.12;78.37;99811.31;1756439;81;21149;-66
2021/11/24 04:49:34;;;;;;;22.77;19.52;;;;;;;6.15;78.17;99813.66;1760232;81;20907;-68
2021/11/24 04:52:02;;;;;;;22.87;20.48;;;;;;;6.16;78.00;99819.30;1759977;81;20888;-68
2021/11/24 04:54:28;;;;;;;23.70;20.50;;;;;;;6.21;77.99;99816.25;1751123;81;20921;-68
2021/11/24 04:56:55;;;;;;;22.60;19.32;;;;;;;6.17;78.23;99811.74;1750810;81;21418;-68
2021/11/24 04:59:22;;;;;;;23.52;20.02;;;;;;;6.27;77.79;99816.20;1763572;81;21150;-67
2021/11/24 05:01:48;;;;;;;23.90;19.82;;;;;;;6.22;77.62;99816.62;1753428;81;20884;-65
2021/11/24 05:04:16;;;;;;;23.62;21.12;;;;;;;6.23;77.56;99815.14;1754826;81;20923;-65
2021/11/24 05:06:42;;;;;;;27.80;21.68;;;;;;;6.26;77.60;99815.88;1756040;81;21944;-65
2021/11/24 05:09:09;;;;;;;30.85;23.25;;;;;;;6.27;77.46;99818.84;1751570;81;20916;-65
2021/11/24 05:11:39;;;;;;;34.10;24.30;;;;;;;6.26;77.29;99821.16;1762404;80;21583;-66
2021/11/24 05:14:07;;;;;;;33.50;23.85;;;;;;;6.21;77.23;99821.05;1757427;80;21032;-66
2021/11/24 05:16:35;;;;;;;38.30;25.17;;;;;;;6.25;77.16;99823.44;1756833;80;20852;-66
2021/11/24 05:19:03;;;;;;;36.10;25.02;;;;;;;6.22;77.19;99817.94;1766800;80;20939;-66
2021/11/24 05:21:33;;;;;;;44.67;27.98;;;;;;;6.20;77.25;99825.98;1759657;80;21043;-67
2021/11/24 05:23:59;;;;;;;44.50;29.85;;;;;;;6.09;77.78;99823.46;1764367;80;21117;-67
2021/11/24 05:26:26;;;;;;;39.92;28.98;;;;;;;6.10;77.80;99823.80;1755354;80;20919;-65
2021/11/24 05:28:55;;;;;;;39.48;27.55;;;;;;;6.11;77.70;99826.80;1770202;80;20935;-67
2021/11/24 05:31:21;;;;;;;31.97;24.65;;;;;;;6.10;77.67;99829.08;1760596;80;21005;-66
2021/11/24 05:33:49;;;;;;;27.75;23.45;;;;;;;6.03;77.98;99828.42;1763064;80;20939;-67
2021/11/24 05:36:17;;;;;;;27.55;21.05;;;;;;;6.00;78.07;99824.24;1756436;80;21160;-66
2021/11/24 05:38:46;;;;;;;23.20;20.57;;;;;;;6.02;78.12;99836.02;1763296;80;20852;-66
2021/11/24 05:41:13;;;;;;;23.62;21.05;;;;;;;6.07;77.91;99832.01;1763387;80;20978;-62
2021/11/24 05:43:39;;;;;;;22.95;19.67;;;;;;;6.09;77.93;99835.34;1759582;80;21504;-68
2021/11/24 05:48:51;;;;;;;23.30;19.48;;;;;;;6.15;77.77;99837.94;1767392;80;21159;-62
2021/11/24 05:51:17;;;;;;;23.77;21.12;;;;;;;6.15;77.68;99844.04;1754226;80;20888;-69
2021/11/24 05:53:44;;;;;;;25.95;21.62;;;;;;;6.17;77.58;99843.44;1762366;80;20979;-66
2021/11/24 05:56:10;;;;;;;25.40;22.17;;;;;;;6.15;77.43;99847.19;1757898;80;20955;-63
2021/11/24 05:58:37;;;;;;;23.77;20.75;;;;;;;6.20;77.43;99848.44;1766131;80;21595;-66
2021/11/24 06:01:03;;;;;;;27.75;20.90;;;;;;;6.29;77.23;99849.92;1761356;80;21496;-66
2021/11/24 06:03:31;;;;;;;25.43;21.20;;;;;;;6.31;77.17;99847.50;1764264;80;20947;-68
2021/11/24 06:05:58;;;;;;;22.62;19.82;;;;;;;6.43;76.89;99857.02;1760319;80;20915;-65
2021/11/24 06:08:25;;;;;;;25.17;20.68;;;;;;;6.46;76.90;99859.39;1757498;80;20953;-73
2021/11/24 06:10:52;;;;;;;21.42;19.23;;;;;;;6.57;76.53;99854.48;1753451;80;20947;-75
2021/11/24 06:13:19;;;;;;;22.17;18.85;;;;;;;6.59;76.41;99861.78;1762384;80;21578;-76
2021/11/24 06:15:45;;;;;;;21.97;19.12;;;;;;;6.61;76.26;99865.13;1761146;80;21434;-67
2021/11/24 06:18:12;;;;;;;19.77;17.87;;;;;;;6.61;76.04;99870.41;1751330;80;21069;-77
2021/11/24 06:20:39;;;;;;;18.98;16.90;;;;;;;6.59;75.93;99866.59;1760607;80;20978;-75
2021/11/24 06:23:08;;;;;;;21.00;18.77;;;;;;;6.66;75.76;99869.03;1772443;80;20888;-72
2021/11/24 06:25:36;;;;;;;20.32;17.37;;;;;;;6.74;75.39;99866.55;1759825;80;21103;-74
2021/11/24 06:28:03;;;;;;;20.05;17.37;;;;;;;6.71;75.37;99870.78;1752361;80;20991;-71
2021/11/24 06:30:30;;;;;;;29.23;21.30;;;;;;;6.73;75.35;99875.44;1764800;80;21093;-73
2021/11/24 06:32:57;;;;;;;18.98;16.97;;;;;;;6.87;74.77;99874.22;1756917;80;21004;-73
2021/11/24 06:35:24;;;;;;;20.70;18.37;;;;;;;6.88;74.57;99875.05;1762795;80;20943;-73
2021/11/24 06:37:50;;;;;;;21.37;18.00;;;;;;;6.89;74.58;99875.38;1756795;80;21584;-75
2021/11/24 06:40:17;;;;;;;24.15;19.73;;;;;;;6.94;74.44;99876.65;1760140;80;20991;-75
2021/11/24 06:42:44;;;;;;;40.75;27.10;;;;;;;6.93;74.42;99878.13;1773740;80;21481;-73
2021/11/24 06:45:11;;;;;;;38.98;26.73;;;;;;;6.90;74.41;99884.52;1762572;80;21011;-74
2021/11/24 06:47:38;;;;;;;32.55;24.75;;;;;;;6.88;74.47;99887.80;1763335;80;21575;-73
2021/11/24 06:50:07;;;;;;;27.07;21.35;;;;;;;6.89;74.42;99900.52;1763316;80;21565;-73
2021/11/24 06:52:34;;;;;;;19.12;17.23;;;;;;;6.86;74.40;99900.81;1758863;80;20952;-73
2021/11/24 06:55:02;;;;;;;21.73;17.60;;;;;;;6.81;74.47;99899.39;1749595;80;20968;-77
2021/11/24 06:57:29;;;;;;;19.05;17.02;;;;;;;6.73;74.47;99897.07;1764186;80;20915;-76
2021/11/24 06:59:56;;;;;;;19.00;16.55;;;;;;;6.76;74.44;99892.84;1764709;80;20915;-75
2021/11/24 07:02:22;;;;;;;20.50;17.80;;;;;;;6.65;74.27;99900.88;1765433;80;21038;-71
2021/11/24 07:04:49;;;;;;;23.98;17.37;;;;;;;6.55;74.76;99897.38;1752334;80;20931;-72
2021/11/24 07:07:15;;;;;;;19.15;17.10;;;;;;;6.58;74.95;99902.39;1756632;80;21500;-70
2021/11/24 07:09:42;;;;;;;18.05;16.02;;;;;;;6.57;74.84;99903.38;1758613;80;20947;-73
2021/11/24 07:12:09;;;;;;;19.73;17.10;;;;;;;6.60;74.92;99900.45;1752434;81;21113;-75
2021/11/24 07:14:37;;;;;;;18.67;16.25;;;;;;;6.65;74.92;99900.88;1744515;81;21916;-77
2021/11/24 07:17:04;;;;;;;22.58;17.35;;;;;;;6.72;74.76;99902.87;1765213;81;20924;-72
2021/11/24 07:19:30;;;;;;;19.42;17.37;;;;;;;6.79;74.57;99899.19;1750525;81;20997;-74
2021/11/24 07:21:57;;;;;;;24.00;18.27;;;;;;;6.87;74.40;99900.66;1758272;81;20962;-74
2021/11/24 07:24:24;;;;;;;20.17;16.62;;;;;;;6.88;74.09;99901.50;1759512;81;21702;-72
2021/11/24 07:26:50;;;;;;;19.67;16.05;;;;;;;6.79;74.15;99902.67;1762716;81;21151;-72
2021/11/24 07:29:17;;;;;;;23.70;17.23;;;;;;;6.79;74.36;99900.50;1753659;81;20939;-74
2021/11/24 07:31:43;;;;;;;27.73;21.68;;;;;;;6.86;74.24;99898.98;1697317;84;20959;-73
2021/11/24 07:34:13;;;;;;;29.63;21.82;;;;;;;6.84;74.30;99899.61;1691610;84;20961;-73
2021/11/24 07:36:40;;;;;;;23.85;19.65;;;;;;;6.77;74.32;99903.30;1718022;83;21041;-71
2021/11/24 07:39:07;;;;;;;21.77;18.05;;;;;;;6.74;74.45;99900.92;1724173;82;21561;-70
2021/11/24 07:41:36;;;;;;;21.85;17.48;;;;;;;6.82;74.37;99900.23;1757766;81;20965;-72
2021/11/24 07:44:03;;;;;;;25.35;17.20;;;;;;;6.89;74.10;99906.64;1758486;81;21031;-72
2021/11/24 07:46:29;;;;;;;23.85;18.07;;;;;;;6.99;73.78;99906.17;1756212;81;21591;-73
2021/11/24 07:48:57;;;;;;;20.35;16.62;;;;;;;7.01;73.74;99901.60;1753275;81;20920;-70
2021/11/24 07:51:24;;;;;;;20.65;17.32;;;;;;;7.03;73.61;99900.97;1754612;81;21560;-69
2021/11/24 07:53:51;;;;;;;24.35;18.23;;;;;;;7.11;73.43;99902.92;1766340;81;21017;-71
2021/11/24 07:56:17;;;;;;;20.95;16.93;;;;;;;7.15;73.30;99897.20;1753837;81;20950;-69
2021/11/24 07:58:44;;;;;;;19.90;15.65;;;;;;;7.18;73.09;99898.26;1746019;81;21547;-72
2021/11/24 08:01:11;;;;;;;19.82;16.17;;;;;;;7.14;72.94;99903.49;1751502;81;20916;-71
2021/11/24 08:03:39;;;;;;;21.50;16.57;;;;;;;7.14;72.92;99897.36;1766678;81;21138;-69
2021/11/24 08:06:06;;;;;;;15.75;14.00;;;;;;;7.16;72.87;99898.05;1748687;81;20899;-69
2021/11/24 08:08:33;;;;;;;14.25;12.85;;;;;;;7.19;72.62;99899.95;1759446;81;20971;-70
2021/11/24 08:10:59;;;;;;;14.33;12.68;;;;;;;7.26;72.37;99902.37;1749191;81;21481;-70
2021/11/24 08:13:26;;;;;;;15.48;12.37;;;;;;;7.30;72.17;99900.30;1758558;80;21007;-70
2021/11/24 08:15:53;;;;;;;18.30;13.98;;;;;;;7.33;71.80;99894.22;1753542;81;21159;-70
2021/11/24 08:18:20;;;;;;;15.43;13.50;;;;;;;7.35;71.68;99892.77;1753307;81;21054;-71
2021/11/24 08:20:47;;;;;;;13.98;12.58;;;;;;;7.43;71.37;99888.42;1760168;81;21395;-70
2021/11/24 08:23:13;;;;;;;14.87;12.25;;;;;;;7.41;71.29;99891.70;1756738;81;21517;-71
2021/11/24 08:25:40;;;;;;;12.15;10.93;;;;;;;7.48;71.06;99897.30;1760068;81;21599;-69
2021/11/24 08:28:07;;;;;;;13.43;11.03;;;;;;;7.48;70.77;99898.10;1712593;83;21174;-71
2021/11/24 08:30:35;;;;;;;14.00;11.83;;;;;;;7.46;70.27;99896.09;1693485;84;20985;-72
2021/11/24 08:33:01;;;;;;;12.25;11.03;;;;;;;7.46;70.28;99898.73;1759776;81;20991;-72
2021/11/24 08:35:28;;;;;;;16.00;11.08;;;;;;;7.50;70.03;99896.66;1756765;81;20978;-70
2021/11/24 08:37:54;;;;;;;10.98;9.40;;;;;;;7.55;69.67;99897.55;1757070;81;21066;-70
2021/11/24 08:40:21;;;;;;;11.63;9.70;;;;;;;7.49;69.41;99885.70;1752149;81;21158;-70
2021/11/24 08:42:48;;;;;;;10.23;9.18;;;;;;;7.45;69.30;99890.47;1757211;81;21431;-70
2021/11/24 08:45:15;;;;;;;11.75;9.95;;;;;;;7.39;69.45;99891.02;1759103;81;20952;-69
2021/11/24 08:47:42;;;;;;;12.30;10.72;;;;;;;7.41;69.47;99887.73;1752274;81;20997;-69
2021/11/24 08:50:11;;;;;;;12.18;9.95;;;;;;;7.44;69.43;99887.46;1751675;81;21414;-70
2021/11/24 08:52:40;;;;;;;10.10;8.98;;;;;;;7.44;69.18;99887.46;1757159;81;21829;-70
2021/11/24 08:55:08;;;;;;;9.70;8.70;;;;;;;7.50;68.91;99889.20;1761445;81;21512;-68
2021/11/24 08:57:37;;;;;;;10.70;9.60;;;;;;;7.54;68.88;99887.92;1754349;81;21015;-68
2021/11/24 09:00:09;;;;;;;14.95;10.45;;;;;;;7.62;68.58;99884.08;1749784;81;20931;-69
2021/11/24 09:02:36;;;;;;;10.35;9.23;;;;;;;7.60;68.57;99886.05;1754671;81;20896;-70
2021/11/24 09:05:05;;;;;;;12.47;10.98;;;;;;;7.55;68.50;99877.70;1764187;81;21157;-71
2021/11/24 09:07:32;;;;;;;12.23;11.03;;;;;;;7.60;68.47;99877.63;1749919;81;21501;-73
2021/11/24 09:10:01;;;;;;;12.15;10.10;;;;;;;7.65;68.25;99875.38;1753743;81;20951;-72
2021/11/24 09:12:27;;;;;;;11.53;10.15;;;;;;;7.66;67.99;99874.89;1754109;81;21469;-72
2021/11/24 09:14:55;;;;;;;11.38;9.88;;;;;;;7.65;67.96;99875.86;1740369;81;20891;-72
2021/11/24 09:17:23;;;;;;;11.33;9.60;;;;;;;7.65;67.64;99878.03;1767558;81;21169;-73
2021/11/24 09:19:52;;;;;;;12.10;10.58;;;;;;;7.63;67.56;99873.85;1758035;81;20950;-70
2021/11/24 09:22:19;;;;;;;11.65;10.45;;;;;;;7.67;67.57;99871.25;1751719;81;20935;-69
2021/11/24 09:24:47;;;;;;;10.00;8.90;;;;;;;7.70;67.14;99880.24;1740933;81;21454;-68
2021/11/24 09:27:17;;;;;;;11.57;10.13;;;;;;;7.73;66.63;99874.67;1759020;81;21082;-70
2021/11/24 09:29:47;;;;;;;11.53;10.30;;;;;;;7.74;66.54;99873.70;1761906;81;21161;-70
2021/11/24 09:32:16;;;;;;;10.93;9.83;;;;;;;7.71;66.46;99872.17;1758495;81;21512;-69
2021/11/24 09:34:42;;;;;;;12.30;9.40;;;;;;;7.75;66.54;99869.57;1759366;81;20936;-70
2021/11/24 09:37:09;;;;;;;10.30;9.23;;;;;;;7.80;66.36;99870.45;1763285;81;21093;-72
2021/11/24 09:39:37;;;;;;;10.72;9.45;;;;;;;7.80;66.27;99870.45;1753922;81;20996;-70
2021/11/24 09:42:05;;;;;;;11.28;9.95;;;;;;;7.85;65.99;99872.19;1761089;81;21156;-72
2021/11/24 09:44:33;;;;;;;9.83;8.78;;;;;;;7.85;65.75;99873.51;1757648;81;20940;-70
2021/11/24 09:46:59;;;;;;;10.25;9.35;;;;;;;7.80;65.61;99869.14;1751987;80;20955;-70
2021/11/24 09:49:29;;;;;;;10.15;9.05;;;;;;;7.83;65.42;99868.37;1756818;81;20951;-74
2021/11/24 09:51:56;;;;;;;11.20;9.80;;;;;;;7.86;65.33;99860.14;1752073;81;21721;-69
2021/11/24 09:54:23;;;;;;;13.85;11.48;;;;;;;7.89;65.18;99869.61;1755108;81;21512;-60
2021/11/24 09:56:49;;;;;;;24.65;15.60;;;;;;;7.88;65.15;99861.31;1755119;81;20856;-66
2021/11/24 09:59:16;;;;;;;28.75;18.40;;;;;;;7.91;65.99;99867.16;1766240;81;20994;-67
2021/11/24 10:01:43;;;;;;;18.52;13.30;;;;;;;8.00;65.86;99865.47;1764927;81;20970;-66
2021/11/24 10:04:10;;;;;;;12.43;11.20;;;;;;;8.05;65.40;99861.90;1756180;81;20986;-69
2021/11/24 10:06:40;;;;;;;13.53;11.63;;;;;;;8.08;65.43;99858.97;1763476;81;21153;-65
2021/11/24 10:09:08;;;;;;;22.50;17.00;;;;;;;8.14;65.03;99859.69;1747794;80;20916;-63
2021/11/24 10:11:36;;;;;;;21.37;16.10;;;;;;;8.19;64.99;99855.27;1754655;81;21090;-64
2021/11/24 10:14:04;;;;;;;17.25;13.03;;;;;;;8.24;65.36;99852.52;1758762;81;21023;-55
2021/11/24 10:16:34;;;;;;;17.65;11.85;;;;;;;8.31;65.31;99853.66;1755679;81;21454;-67
2021/11/24 10:19:11;;;;;;;11.68;10.40;;;;;;;8.36;65.41;99850.56;1748854;81;21221;-66
2021/11/24 10:22:06;;;;;;;15.75;10.80;;;;;;;8.43;65.13;99848.98;1750371;81;20939;-67
2021/11/24 10:24:39;;;;;;;11.85;10.43;;;;;;;8.50;64.53;99842.09;1753214;81;21012;-69
2021/11/24 10:27:08;;;;;;;13.28;11.88;;;;;;;8.58;64.15;99835.56;1758040;81;20911;-69
2021/11/24 10:29:37;;;;;;;14.38;12.10;;;;;;;8.53;64.60;99839.16;1766008;81;21536;-70
2021/11/24 10:32:07;;;;;;;12.15;10.85;;;;;;;8.57;64.41;99844.52;1753064;81;21171;-69
2021/11/24 10:34:39;;;;;;;12.05;10.10;;;;;;;8.60;64.42;99842.91;1761517;81;20994;-70
2021/11/24 10:37:15;;;;;;;12.35;11.03;;;;;;;8.68;64.14;99839.02;1758565;81;20983;-68
2021/11/24 10:39:53;;;;;;;13.78;11.50;;;;;;;8.77;63.98;99841.23;1758286;81;20986;-65
2021/11/24 10:42:34;;;;;;;12.80;11.38;;;;;;;8.78;63.46;99833.63;1765228;81;20970;-64
2021/11/24 10:45:18;;;;;;;12.47;11.18;;;;;;;8.72;63.25;99831.58;1765638;81;21166;-65
2021/11/24 10:47:52;;;;;;;11.25;10.10;;;;;;;8.69;63.31;99830.05;1761881;81;20955;-65
2021/11/24 10:50:23;;;;;;;12.25;10.93;;;;;;;8.67;63.31;99828.89;1760063;81;21011;-67
2021/11/24 10:52:49;;;;;;;13.13;11.83;;;;;;;8.70;63.40;99825.10;1749452;81;20919;-66
2021/11/24 10:55:21;;;;;;;14.87;13.38;;;;;;;8.70;63.73;99819.80;1756018;81;21553;-66
2021/11/24 10:58:24;;;;;;;14.07;12.55;;;;;;;8.77;63.95;99816.04;1756002;80;21105;-67
2021/11/24 11:00:50;;;;;;;14.05;11.88;;;;;;;8.87;63.88;99819.45;1757320;81;20900;-65
2021/11/24 11:03:17;;;;;;;12.73;11.45;;;;;;;8.90;63.61;99813.84;1760941;81;20892;-65
2021/11/24 11:05:45;;;;;;;12.60;11.05;;;;;;;8.86;63.30;99819.13;1757249;81;21058;-66
2021/11/24 11:08:16;;;;;;;11.90;10.75;;;;;;;8.85;63.46;99812.98;1748905;81;21051;-66
2021/11/24 11:10:49;;;;;;;14.28;11.73;;;;;;;8.89;63.35;99808.22;1743719;81;21167;-67
2021/11/24 11:13:21;;;;;;;13.30;11.43;;;;;;;8.89;63.50;99816.17;1770643;80;20979;-66
2021/11/24 11:15:52;;;;;;;13.58;12.25;;;;;;;8.96;63.50;99801.31;1768259;80;20907;-68
2021/11/24 11:18:26;;;;;;;16.00;12.90;;;;;;;9.02;63.47;99800.19;1757202;80;20931;-68
2021/11/24 11:21:11;;;;;;;13.88;12.10;;;;;;;9.06;63.36;99790.95;1766816;80;21515;-73
2021/11/24 11:23:43;;;;;;;14.38;12.58;;;;;;;9.15;63.19;99790.54;1770174;80;21152;-73
2021/11/24 11:26:20;;;;;;;14.55;12.15;;;;;;;9.16;62.98;99795.68;1760739;80;21461;-68
2021/11/24 11:28:52;;;;;;;12.93;11.55;;;;;;;9.12;62.87;99787.70;1757267;80;20899;-68
2021/11/24 11:31:21;;;;;;;13.22;10.98;;;;;;;9.12;62.69;99790.36;1763212;80;20927;-69
2021/11/24 11:33:53;;;;;;;14.28;11.75;;;;;;;9.07;62.46;99782.50;1762948;80;21057;-65